createdAt,value
2022-10-24T00:01:18.897Z,16.39
2022-10-24T00:03:47.464Z,16.41
2022-10-24T00:06:14.834Z,16.78
2022-10-24T00:08:42.700Z,16.83
2022-10-24T00:11:15.235Z,16.06
2022-10-24T00:13:42.789Z,16.41
2022-10-24T00:16:10.678Z,16.40
2022-10-24T00:18:38.033Z,16.06
2022-10-24T00:21:05.564Z,15.82
2022-10-24T00:23:33.164Z,15.94
2022-10-24T00:26:02.050Z,16.66
2022-10-24T00:28:30.594Z,16.17
2022-10-24T00:30:58.194Z,16.71
2022-10-24T00:33:25.595Z,16.26
2022-10-24T00:35:52.917Z,16.73
2022-10-24T00:38:20.848Z,16.56
2022-10-24T00:40:48.150Z,15.70
2022-10-24T00:43:20.774Z,15.69
2022-10-24T00:45:58.701Z,16.34
2022-10-24T00:48:37.994Z,16.62
2022-10-24T00:51:14.532Z,16.81
2022-10-24T00:53:44.841Z,16.69
2022-10-24T00:56:12.695Z,16.50
2022-10-24T00:58:40.122Z,16.75
2022-10-24T01:01:09.130Z,16.49
2022-10-24T01:03:36.846Z,16.54
2022-10-24T01:06:22.343Z,16.27
2022-10-24T01:09:00.121Z,16.22
2022-10-24T01:11:40.198Z,16.12
2022-10-24T01:14:13.619Z,15.95
2022-10-24T01:16:43.676Z,16.04
2022-10-24T01:19:20.365Z,15.75
2022-10-24T01:21:49.178Z,16.31
2022-10-24T01:24:37.828Z,16.46
2022-10-24T01:29:48.309Z,16.36
2022-10-24T01:32:50.913Z,16.12
2022-10-24T01:35:26.335Z,16.52
2022-10-24T01:37:55.552Z,16.50
2022-10-24T01:40:46.057Z,16.82
2022-10-24T01:43:14.036Z,16.56
2022-10-24T01:45:43.705Z,15.58
2022-10-24T01:48:14.299Z,16.31
2022-10-24T01:50:42.040Z,16.47
2022-10-24T01:53:09.432Z,16.55
2022-10-24T01:55:36.777Z,15.78
2022-10-24T01:58:04.378Z,16.09
2022-10-24T02:00:31.778Z,15.40
2022-10-24T02:03:01.997Z,15.40
2022-10-24T02:05:32.530Z,15.61
2022-10-24T02:08:06.346Z,16.34
2022-10-24T02:10:36.215Z,15.71
2022-10-24T02:13:06.002Z,15.46
2022-10-24T02:15:37.303Z,15.96
2022-10-24T02:18:04.693Z,16.21
2022-10-24T02:20:43.273Z,16.36
2022-10-24T02:23:17.012Z,16.27
2022-10-24T02:28:20.426Z,16.30
2022-10-24T02:30:56.438Z,15.86
2022-10-24T02:33:24.021Z,16.30
2022-10-24T02:35:52.612Z,16.29
2022-10-24T02:38:26.823Z,16.63
2022-10-24T02:40:54.737Z,16.49
2022-10-24T02:43:22.307Z,16.21
2022-10-24T02:45:50.846Z,16.52
2022-10-24T02:48:19.631Z,16.59
2022-10-24T02:50:47.119Z,16.66
2022-10-24T02:53:16.033Z,16.85
2022-10-24T02:55:43.635Z,16.93
2022-10-24T02:58:10.970Z,15.11
2022-10-24T03:00:38.371Z,15.05
2022-10-24T03:03:05.992Z,16.33
2022-10-24T03:05:33.313Z,16.44
2022-10-24T03:08:00.662Z,16.25
2022-10-24T03:10:28.211Z,15.82
2022-10-24T03:12:55.519Z,15.84
2022-10-24T03:15:22.877Z,15.99
2022-10-24T03:17:50.471Z,16.15
2022-10-24T03:20:17.882Z,15.08
2022-10-24T03:22:45.232Z,15.13
2022-10-24T03:25:12.847Z,15.73
2022-10-24T03:27:40.215Z,16.20
2022-10-24T03:30:07.947Z,14.88
2022-10-24T03:32:35.541Z,15.88
2022-10-24T03:35:02.894Z,15.40
2022-10-24T03:37:30.224Z,15.99
2022-10-24T03:39:57.856Z,15.04
2022-10-24T03:42:25.181Z,15.22
2022-10-24T03:44:52.844Z,15.55
2022-10-24T03:47:20.461Z,15.64
2022-10-24T03:49:47.822Z,15.56
2022-10-24T03:52:15.166Z,15.84
2022-10-24T03:54:42.820Z,15.67
2022-10-24T03:57:10.218Z,15.46
2022-10-24T03:59:37.655Z,15.40
2022-10-24T04:02:05.837Z,15.98
2022-10-24T04:04:33.512Z,16.30
2022-10-24T04:07:00.930Z,16.37
2022-10-24T04:09:28.326Z,15.86
2022-10-24T04:11:55.939Z,16.42
2022-10-24T04:14:23.279Z,16.20
2022-10-24T04:16:50.584Z,15.97
2022-10-24T04:19:18.480Z,15.48
2022-10-24T04:21:47.833Z,15.24
2022-10-24T04:24:15.327Z,16.01
2022-10-24T04:26:43.101Z,15.87
2022-10-24T04:29:10.406Z,15.68
2022-10-24T04:31:37.727Z,15.78
2022-10-24T04:34:06.216Z,15.84
2022-10-24T04:36:34.052Z,16.26
2022-10-24T04:41:33.961Z,16.31
2022-10-24T04:44:01.271Z,15.69
2022-10-24T04:46:28.596Z,15.39
2022-10-24T04:48:56.174Z,15.17
2022-10-24T04:51:23.464Z,15.18
2022-10-24T04:53:51.314Z,15.16
2022-10-24T04:56:19.154Z,14.89
2022-10-24T04:58:46.464Z,15.08
2022-10-24T05:01:13.845Z,14.27
2022-10-24T05:03:41.476Z,15.01
2022-10-24T05:06:08.772Z,15.37
2022-10-24T05:08:36.373Z,15.38
2022-10-24T05:11:04.004Z,15.36
2022-10-24T05:13:34.335Z,15.42
2022-10-24T05:16:05.141Z,14.69
2022-10-24T05:18:32.671Z,14.69
2022-10-24T05:21:00.198Z,15.24
2022-10-24T05:23:27.854Z,14.97
2022-10-24T05:25:55.202Z,15.21
2022-10-24T05:28:22.677Z,15.47
2022-10-24T05:30:50.311Z,15.73
2022-10-24T05:33:17.638Z,15.51
2022-10-24T05:35:44.990Z,15.35
2022-10-24T05:38:12.558Z,15.89
2022-10-24T05:40:39.920Z,16.06
2022-10-24T05:43:07.239Z,15.66
2022-10-24T05:45:34.919Z,15.81
2022-10-24T05:48:02.272Z,16.11
2022-10-24T05:50:30.123Z,16.35
2022-10-24T05:52:57.792Z,16.56
2022-10-24T05:55:25.148Z,16.23
2022-10-24T05:57:52.675Z,16.68
2022-10-24T06:00:20.320Z,16.17
2022-10-24T06:02:47.939Z,16.18
2022-10-24T06:05:18.208Z,16.00
2022-10-24T06:07:47.217Z,15.54
2022-10-24T06:10:15.664Z,14.57
2022-10-24T06:12:43.342Z,15.21
2022-10-24T06:15:12.246Z,15.40
2022-10-24T06:17:39.901Z,15.88
2022-10-24T06:20:07.802Z,14.97
2022-10-24T06:22:35.139Z,15.58
2022-10-24T06:25:02.757Z,15.78
2022-10-24T06:27:30.119Z,15.29
2022-10-24T06:29:57.534Z,15.77
2022-10-24T06:32:25.092Z,15.39
2022-10-24T06:34:52.423Z,15.42
2022-10-24T06:37:21.774Z,15.63
2022-10-24T06:39:49.385Z,15.99
2022-10-24T06:42:16.689Z,16.06
2022-10-24T06:44:44.024Z,16.12
2022-10-24T06:47:11.600Z,15.34
2022-10-24T06:49:39.156Z,15.65
2022-10-24T06:52:06.473Z,15.95
2022-10-24T06:54:35.171Z,14.96
2022-10-24T06:57:02.568Z,14.75
2022-10-24T06:59:30.027Z,15.58
2022-10-24T07:02:01.728Z,14.51
2022-10-24T07:04:32.413Z,15.42
2022-10-24T07:07:00.091Z,15.16
2022-10-24T07:09:29.459Z,15.51
2022-10-24T07:11:56.812Z,15.55
2022-10-24T07:14:25.861Z,15.43
2022-10-24T07:16:53.560Z,15.77
2022-10-24T07:19:20.918Z,15.53
2022-10-24T07:21:48.526Z,15.49
2022-10-24T07:24:15.894Z,15.74
2022-10-24T07:26:43.285Z,15.34
2022-10-24T07:29:10.946Z,15.90
2022-10-24T07:31:38.263Z,15.27
2022-10-24T07:34:06.674Z,15.67
2022-10-24T07:36:34.341Z,15.85
2022-10-24T07:39:01.790Z,15.22
2022-10-24T07:41:30.127Z,16.14
2022-10-24T07:43:58.765Z,14.67
2022-10-24T07:46:26.206Z,15.05
2022-10-24T07:48:53.614Z,15.43
2022-10-24T07:51:21.385Z,15.48
2022-10-24T07:53:48.858Z,15.69
2022-10-24T07:56:16.805Z,15.90
2022-10-24T07:58:44.535Z,15.56
2022-10-24T08:01:16.735Z,15.92
2022-10-24T08:03:44.650Z,15.83
2022-10-24T08:06:17.120Z,15.53
2022-10-24T08:08:44.817Z,14.93
2022-10-24T08:11:21.854Z,15.17
2022-10-24T08:13:50.200Z,15.74
2022-10-24T08:16:18.180Z,15.58
2022-10-24T08:18:45.581Z,14.74
2022-10-24T08:21:14.065Z,15.07
2022-10-24T08:23:43.137Z,15.31
2022-10-24T08:26:12.957Z,15.74
2022-10-24T08:28:40.880Z,16.01
2022-10-24T08:31:11.159Z,16.01
2022-10-24T08:33:38.599Z,16.28
2022-10-24T08:36:28.212Z,15.98
2022-10-24T08:38:55.583Z,16.42
2022-10-24T08:41:26.080Z,15.30
2022-10-24T08:43:53.725Z,15.86
2022-10-24T08:46:44.258Z,15.63
2022-10-24T08:49:19.600Z,15.41
2022-10-24T08:52:04.246Z,15.76
2022-10-24T08:54:36.966Z,15.52
2022-10-24T08:57:04.663Z,15.76
2022-10-24T08:59:33.562Z,15.63
2022-10-24T09:02:05.527Z,15.86
2022-10-24T09:04:40.845Z,16.48
2022-10-24T09:07:14.118Z,16.78
2022-10-24T09:09:45.906Z,16.29
2022-10-24T09:12:17.662Z,16.79
2022-10-24T09:14:47.053Z,17.01
2022-10-24T09:20:01.163Z,17.24
2022-10-24T09:22:30.589Z,16.93
2022-10-24T09:25:02.049Z,16.65
2022-10-24T09:27:31.164Z,16.71
2022-10-24T09:29:58.934Z,16.83
2022-10-24T09:32:32.642Z,16.94
2022-10-24T09:35:01.636Z,16.69
2022-10-24T09:37:44.331Z,17.02
2022-10-24T09:40:23.653Z,16.87
2022-10-24T09:43:13.466Z,16.95
2022-10-24T09:45:49.699Z,16.77
2022-10-24T09:48:29.246Z,15.57
2022-10-24T09:50:58.331Z,15.60
2022-10-24T09:53:28.615Z,15.48
2022-10-24T09:56:08.100Z,15.19
2022-10-24T09:58:35.737Z,14.86
2022-10-24T10:01:22.821Z,15.74
2022-10-24T10:04:06.122Z,15.74
2022-10-24T10:06:36.086Z,15.62
2022-10-24T10:09:03.912Z,15.37
2022-10-24T10:11:35.273Z,15.58
2022-10-24T10:14:05.259Z,16.04
2022-10-24T10:16:38.644Z,15.94
2022-10-24T10:19:19.645Z,15.84
2022-10-24T10:21:57.946Z,15.93
2022-10-24T10:24:38.590Z,16.32
2022-10-24T10:27:24.258Z,16.89
2022-10-24T10:30:10.350Z,17.01
2022-10-24T10:32:55.754Z,17.05
2022-10-24T10:35:32.136Z,17.24
2022-10-24T10:38:19.967Z,17.81
2022-10-24T10:40:54.091Z,17.64
2022-10-24T10:43:56.400Z,17.62
2022-10-24T10:46:37.172Z,17.46
2022-10-24T10:49:39.829Z,18.05
2022-10-24T10:52:36.057Z,17.77
2022-10-24T10:55:09.231Z,18.23
2022-10-24T10:57:49.372Z,18.00
2022-10-24T11:00:35.241Z,18.53
2022-10-24T11:03:06.340Z,18.42
2022-10-24T11:05:53.437Z,18.76
2022-10-24T11:08:39.877Z,19.02
2022-10-24T11:11:08.150Z,18.70
2022-10-24T11:14:20.602Z,19.11
2022-10-24T11:16:48.155Z,18.93
2022-10-24T11:19:48.074Z,17.95
2022-10-24T11:22:26.524Z,17.00
2022-10-24T11:25:03.783Z,18.04
2022-10-24T11:27:42.059Z,18.48
2022-10-24T11:30:17.283Z,18.67
2022-10-24T11:32:55.070Z,18.67
2022-10-24T11:35:33.151Z,18.53
2022-10-24T11:38:17.364Z,18.53
2022-10-24T11:40:46.083Z,18.70
2022-10-24T11:43:19.631Z,17.62
2022-10-24T11:45:56.021Z,18.28
2022-10-24T11:48:29.356Z,18.43
2022-10-24T11:51:10.170Z,17.60
2022-10-24T11:53:39.357Z,18.20
2022-10-24T11:56:19.102Z,18.57
2022-10-24T11:58:49.582Z,18.99
2022-10-24T12:01:39.971Z,19.22
2022-10-24T12:04:41.757Z,19.08
2022-10-24T12:07:39.984Z,19.34
2022-10-24T12:10:16.931Z,19.43
2022-10-24T12:12:56.872Z,19.20
2022-10-24T12:15:57.134Z,19.17
2022-10-24T12:18:30.782Z,19.18
2022-10-24T12:21:03.517Z,19.17
2022-10-24T12:23:31.636Z,18.96
2022-10-24T12:26:14.473Z,19.15
2022-10-24T12:28:41.835Z,19.47
2022-10-24T12:31:22.254Z,19.28
2022-10-24T12:34:15.163Z,19.38
2022-10-24T12:37:12.017Z,19.50
2022-10-24T12:39:51.045Z,19.59
2022-10-24T12:42:19.973Z,19.69
2022-10-24T12:44:51.007Z,19.60
2022-10-24T12:47:40.237Z,19.82
2022-10-24T12:50:23.193Z,19.79
2022-10-24T12:53:29.504Z,19.89
2022-10-24T12:55:56.932Z,20.08
2022-10-24T12:58:44.573Z,19.70
2022-10-24T13:01:24.313Z,19.87
2022-10-24T13:03:53.381Z,19.82
2022-10-24T13:06:35.844Z,20.04
2022-10-24T13:09:38.422Z,20.04
2022-10-24T13:12:43.425Z,20.12
2022-10-24T13:15:45.532Z,19.78
2022-10-24T13:18:25.574Z,19.79
2022-10-24T13:21:12.659Z,19.85
2022-10-24T13:23:46.705Z,19.73
2022-10-24T13:26:40.073Z,19.35
2022-10-24T13:29:23.553Z,19.49
2022-10-24T13:31:51.563Z,19.39
2022-10-24T13:34:19.717Z,19.42
2022-10-24T13:36:58.221Z,19.56
2022-10-24T13:39:27.952Z,19.50
2022-10-24T13:42:01.346Z,19.35
2022-10-24T13:44:45.302Z,19.37
2022-10-24T13:47:15.474Z,19.49
2022-10-24T13:50:21.334Z,19.30
2022-10-24T13:52:54.827Z,19.62
2022-10-24T13:55:25.394Z,19.60
2022-10-24T13:58:15.392Z,19.50
2022-10-24T14:00:45.069Z,19.17
2022-10-24T14:03:17.553Z,19.26
2022-10-24T14:05:52.433Z,19.29
2022-10-24T14:08:31.361Z,19.55
2022-10-24T14:11:00.753Z,19.29
2022-10-24T14:13:29.647Z,18.76
2022-10-24T14:15:58.753Z,19.17
2022-10-24T14:18:26.184Z,18.97
2022-10-24T14:20:55.794Z,18.97
2022-10-24T14:23:29.754Z,18.97
2022-10-24T14:26:00.013Z,18.94
2022-10-24T14:28:31.847Z,18.98
2022-10-24T14:31:04.620Z,18.76
2022-10-24T14:33:33.341Z,18.57
2022-10-24T14:36:02.008Z,18.88
2022-10-24T14:38:29.335Z,18.96
2022-10-24T14:41:08.268Z,18.92
2022-10-24T14:43:39.923Z,18.41
2022-10-24T14:46:07.432Z,18.76
2022-10-24T14:48:35.327Z,18.55
2022-10-24T14:51:09.354Z,18.75
2022-10-24T14:53:37.561Z,18.76
2022-10-24T14:56:06.850Z,18.78
2022-10-24T14:58:34.370Z,18.52
2022-10-24T15:01:01.824Z,18.55
2022-10-24T15:03:29.486Z,18.56
2022-10-24T15:06:12.401Z,18.26
2022-10-24T15:11:17.534Z,18.61
2022-10-24T15:13:48.159Z,18.67
2022-10-24T15:16:26.430Z,18.57
2022-10-24T15:18:55.707Z,18.18
2022-10-24T15:21:25.342Z,18.37
2022-10-24T15:23:57.266Z,18.54
2022-10-24T15:26:46.225Z,18.59
2022-10-24T15:29:13.376Z,18.55
2022-10-24T15:31:43.087Z,18.35
2022-10-24T15:34:20.017Z,18.54
2022-10-24T15:36:48.321Z,18.60
2022-10-24T15:39:20.393Z,18.58
2022-10-24T15:41:48.231Z,18.55
2022-10-24T15:44:18.258Z,18.64
2022-10-24T15:46:45.698Z,18.69
2022-10-24T15:49:13.296Z,18.49
2022-10-24T15:51:44.573Z,18.38
2022-10-24T15:54:16.749Z,18.46
2022-10-24T15:56:44.050Z,18.40
2022-10-24T15:59:11.381Z,18.30
2022-10-24T16:01:44.783Z,18.43
2022-10-24T16:04:12.436Z,18.44
2022-10-24T16:06:39.854Z,18.41
2022-10-24T16:09:10.640Z,18.46
2022-10-24T16:11:38.222Z,18.70
2022-10-24T16:14:05.729Z,18.62
2022-10-24T16:16:33.043Z,18.30
2022-10-24T16:19:00.648Z,18.01
2022-10-24T16:21:27.956Z,17.90
2022-10-24T16:23:55.571Z,18.22
2022-10-24T16:26:23.207Z,17.38
2022-10-24T16:28:50.513Z,17.60
2022-10-24T16:31:23.548Z,17.97
2022-10-24T16:33:51.428Z,18.05
2022-10-24T16:36:20.900Z,17.94
2022-10-24T16:38:51.478Z,17.88
2022-10-24T16:41:20.718Z,17.91
2022-10-24T16:43:49.880Z,17.34
2022-10-24T16:46:20.105Z,17.53
2022-10-24T16:48:47.645Z,17.77
2022-10-24T16:51:17.142Z,17.73
2022-10-24T16:53:44.721Z,17.76
2022-10-24T16:56:12.670Z,17.90
2022-10-24T16:58:40.005Z,17.86
2022-10-24T17:01:09.606Z,18.01
2022-10-24T17:03:37.336Z,18.25
2022-10-24T17:06:04.952Z,17.79
2022-10-24T17:08:32.583Z,17.87
2022-10-24T17:11:00.826Z,17.88
2022-10-24T17:13:28.305Z,17.68
2022-10-24T17:15:56.519Z,17.80
2022-10-24T17:18:25.437Z,18.01
2022-10-24T17:20:58.822Z,17.35
2022-10-24T17:23:26.767Z,17.58
2022-10-24T17:25:54.507Z,17.59
2022-10-24T17:28:21.916Z,17.77
2022-10-24T17:30:49.619Z,17.85
2022-10-24T17:33:17.065Z,17.77
2022-10-24T17:35:50.895Z,17.60
2022-10-24T17:38:53.013Z,17.63
2022-10-24T17:41:23.086Z,17.73
2022-10-24T17:43:50.986Z,17.58
2022-10-24T17:46:18.656Z,17.64
2022-10-24T17:48:45.962Z,17.65
2022-10-24T17:51:15.768Z,17.05
2022-10-24T17:53:43.077Z,17.50
2022-10-24T17:58:42.955Z,17.26
2022-10-24T18:01:11.239Z,17.51
2022-10-24T18:03:38.998Z,17.28
2022-10-24T18:06:06.842Z,16.99
2022-10-24T18:08:34.191Z,17.07
2022-10-24T18:11:02.985Z,17.08
2022-10-24T18:13:30.395Z,16.77
2022-10-24T18:15:57.710Z,16.75
2022-10-24T18:18:25.268Z,16.65
2022-10-24T18:20:53.156Z,16.75
2022-10-24T18:23:20.483Z,16.57
2022-10-24T18:25:48.073Z,16.66
2022-10-24T18:28:15.491Z,16.72
2022-10-24T18:30:42.801Z,15.92
2022-10-24T18:33:10.409Z,16.54
2022-10-24T18:35:37.774Z,16.42
2022-10-24T18:38:05.174Z,16.23
2022-10-24T18:40:35.113Z,16.08
2022-10-24T18:43:05.126Z,16.34
2022-10-24T18:45:33.487Z,16.64
2022-10-24T18:48:01.122Z,16.66
2022-10-24T18:50:28.918Z,16.78
2022-10-24T18:53:03.568Z,16.48
2022-10-24T18:55:31.198Z,16.07
2022-10-24T18:57:58.967Z,16.38
2022-10-24T19:00:30.992Z,16.64
2022-10-24T19:03:23.789Z,16.33
2022-10-24T19:06:06.322Z,16.56
2022-10-24T19:08:33.940Z,16.31
2022-10-24T19:11:01.521Z,16.30
2022-10-24T19:13:28.927Z,16.65
2022-10-24T19:16:05.921Z,16.72
2022-10-24T19:18:34.329Z,16.74
2022-10-24T19:21:01.967Z,16.79
2022-10-24T19:23:29.304Z,16.89
2022-10-24T19:25:56.660Z,16.68
2022-10-24T19:28:24.251Z,16.71
2022-10-24T19:30:51.585Z,16.84
2022-10-24T19:33:19.057Z,16.05
2022-10-24T19:35:49.525Z,16.63
2022-10-24T19:38:17.192Z,16.73
2022-10-24T19:40:48.261Z,16.71
2022-10-24T19:43:15.873Z,16.86
2022-10-24T19:45:50.652Z,16.78
2022-10-24T19:48:30.798Z,16.89
2022-10-24T19:51:05.535Z,16.78
2022-10-24T19:53:36.185Z,16.70
2022-10-24T19:56:07.816Z,16.73
2022-10-24T19:58:35.430Z,16.86
2022-10-24T20:01:13.620Z,16.81
2022-10-24T20:03:42.925Z,16.64
2022-10-24T20:06:10.724Z,16.79
2022-10-24T20:08:38.080Z,16.67
2022-10-24T20:11:05.794Z,16.60
2022-10-24T20:13:33.200Z,16.57
2022-10-24T20:16:05.497Z,16.60
2022-10-24T20:18:34.533Z,16.83
2022-10-24T20:21:04.117Z,16.65
2022-10-24T20:23:31.724Z,16.65
2022-10-24T20:26:01.633Z,16.52
2022-10-24T20:28:29.047Z,16.74
2022-10-24T20:30:56.370Z,16.68
2022-10-24T20:33:23.949Z,16.54
2022-10-24T20:35:51.274Z,16.67
2022-10-24T20:38:18.841Z,16.45
2022-10-24T20:40:46.422Z,16.57
2022-10-24T20:43:13.777Z,16.53
2022-10-24T20:45:41.100Z,16.64
2022-10-24T20:48:08.786Z,16.58
2022-10-24T20:50:36.261Z,16.59
2022-10-24T20:53:03.608Z,16.56
2022-10-24T20:55:43.726Z,16.73
2022-10-24T20:58:13.445Z,16.40
2022-10-24T21:03:15.105Z,16.21
2022-10-24T21:05:42.727Z,16.56
2022-10-24T21:08:10.123Z,16.21
2022-10-24T21:10:37.453Z,16.58
2022-10-24T21:13:05.036Z,16.74
2022-10-24T21:15:32.361Z,16.92
2022-10-24T21:17:59.913Z,16.71
2022-10-24T21:20:27.627Z,16.66
2022-10-24T21:22:54.936Z,16.83
2022-10-24T21:25:22.251Z,16.99
2022-10-24T21:27:49.968Z,16.96
2022-10-24T21:30:17.410Z,16.95
2022-10-24T21:32:44.723Z,16.89
2022-10-24T21:35:12.294Z,16.97
2022-10-24T21:37:39.617Z,17.03
2022-10-24T21:40:07.402Z,17.19
2022-10-24T21:42:34.993Z,17.28
2022-10-24T21:45:02.312Z,17.28
2022-10-24T21:47:29.665Z,17.20
2022-10-24T21:49:57.244Z,17.27
2022-10-24T21:52:24.578Z,17.43
2022-10-24T21:54:51.900Z,17.25
2022-10-24T21:57:19.512Z,17.29
2022-10-24T21:59:46.825Z,17.15
2022-10-24T22:02:14.306Z,16.74
2022-10-24T22:04:41.954Z,16.93
2022-10-24T22:07:09.259Z,17.04
2022-10-24T22:09:36.572Z,17.21
2022-10-24T22:12:04.567Z,16.88
2022-10-24T22:14:31.901Z,17.11
2022-10-24T22:16:59.238Z,17.01
2022-10-24T22:19:26.804Z,17.00
2022-10-24T22:21:54.262Z,16.91
2022-10-24T22:24:22.715Z,16.92
2022-10-24T22:26:50.407Z,16.36
2022-10-24T22:29:19.853Z,16.95
2022-10-24T22:31:47.452Z,17.03
2022-10-24T22:34:16.207Z,17.04
2022-10-24T22:37:00.797Z,17.18
2022-10-24T22:39:28.680Z,17.02
2022-10-24T22:41:56.129Z,16.79
2022-10-24T22:44:23.799Z,16.89
2022-10-24T22:47:15.665Z,16.28
2022-10-24T22:50:13.986Z,16.85
2022-10-24T22:52:41.801Z,16.68
2022-10-24T22:55:39.973Z,16.89
2022-10-24T22:58:07.852Z,17.02
2022-10-24T23:00:35.468Z,17.18
2022-10-24T23:03:27.919Z,17.12
2022-10-24T23:06:04.304Z,17.21
2022-10-24T23:08:35.866Z,17.13
2022-10-24T23:11:03.762Z,17.14
2022-10-24T23:13:31.362Z,17.51
2022-10-24T23:16:04.222Z,16.03
2022-10-24T23:18:31.949Z,16.49
2022-10-24T23:21:30.830Z,16.37
2022-10-24T23:23:58.586Z,16.26
2022-10-24T23:27:14.905Z,16.38
2022-10-24T23:29:43.916Z,16.61
2022-10-24T23:32:34.080Z,16.74
2022-10-24T23:35:01.896Z,16.89
2022-10-24T23:37:42.511Z,16.89
2022-10-24T23:40:18.860Z,16.87
2022-10-24T23:42:47.218Z,16.92
2022-10-24T23:45:20.469Z,17.05
2022-10-24T23:48:25.308Z,17.25
2022-10-24T23:51:09.647Z,16.94
2022-10-24T23:53:50.046Z,17.14
2022-10-24T23:56:19.046Z,16.06
2022-10-24T23:58:46.362Z,15.86
